createdAt,value
2023-02-08T00:00:56.739Z,25.8
2023-02-08T00:06:34.415Z,25.4
2023-02-08T00:12:11.144Z,25.3
2023-02-08T00:17:48.502Z,25.5
2023-02-08T00:23:27.485Z,25.6
2023-02-08T00:29:06.185Z,25.2
2023-02-08T00:34:28.329Z,25.3
2023-02-08T00:40:05.270Z,25.6
2023-02-08T00:45:43.722Z,25.3
2023-02-08T00:51:21.452Z,25
2023-02-08T00:56:58.794Z,25.3
2023-02-08T01:02:35.199Z,25.3
2023-02-08T01:08:27.895Z,25.4
2023-02-08T01:14:05.860Z,25.3
2023-02-08T01:19:11.604Z,24.9
2023-02-08T01:24:33.729Z,25.1
2023-02-08T01:29:55.626Z,25.3
2023-02-08T01:35:17.878Z,24.9
2023-02-08T01:40:39.868Z,24.9
2023-02-08T01:46:18.225Z,25.3
2023-02-08T01:51:54.575Z,25.1
2023-02-08T01:57:31.854Z,24.8
2023-02-08T02:03:09.865Z,25.1
2023-02-08T02:08:46.375Z,25.1
2023-02-08T02:14:23.514Z,24.8
2023-02-08T02:20:01.184Z,25
2023-02-08T02:25:40.422Z,25.1
2023-02-08T02:31:17.716Z,24.7
2023-02-08T02:36:55.392Z,24.9
2023-02-08T02:42:31.289Z,25.1
2023-02-08T02:48:08.711Z,24.7
2023-02-08T02:53:30.780Z,24.8
2023-02-08T02:59:07.079Z,24.9
2023-02-08T03:04:29.631Z,24.9
2023-02-08T03:09:52.253Z,25.1
2023-02-08T03:15:27.647Z,24.8
2023-02-08T03:21:03.981Z,24.8
2023-02-08T03:26:41.315Z,25.1
2023-02-08T03:32:03.577Z,25
2023-02-08T03:37:25.181Z,24.6
2023-02-08T03:43:02.698Z,24.9
2023-02-08T03:48:39.495Z,25.1
2023-02-08T03:54:16.720Z,24.6
2023-02-08T03:59:54.098Z,24.8
2023-02-08T04:05:00.148Z,25.1
2023-02-08T04:10:36.201Z,24.8
2023-02-08T04:16:13.648Z,24.7
2023-02-08T04:21:49.960Z,25
2023-02-08T04:27:26.579Z,24.9
2023-02-08T04:33:05.372Z,24.6
2023-02-08T04:38:42.605Z,24.9
2023-02-08T04:44:19.705Z,24.9
2023-02-08T04:49:58.098Z,24.8
2023-02-08T04:55:35.879Z,25.1
2023-02-08T05:01:13.491Z,24.8
2023-02-08T05:06:51.343Z,24.6
2023-02-08T05:12:26.980Z,24.9
2023-02-08T05:18:07.967Z,25
2023-02-08T05:23:46.702Z,24.5
2023-02-08T05:29:22.891Z,24.8
2023-02-08T05:35:02.295Z,25.1
2023-02-08T05:40:40.982Z,24.8
2023-02-08T05:46:17.668Z,24.6
2023-02-08T05:51:41.819Z,24.8
2023-02-08T05:57:04.234Z,24.9
2023-02-08T06:02:41.235Z,24.5
2023-02-08T06:08:03.609Z,24.7
2023-02-08T06:13:26.592Z,25
2023-02-08T06:19:06.239Z,24.9
2023-02-08T06:24:43.633Z,24.7
2023-02-08T06:30:20.728Z,24.9
2023-02-08T06:36:01.544Z,24.8
2023-02-08T06:41:39.269Z,24.5
2023-02-08T06:47:26.647Z,24.8
2023-02-08T06:53:03.542Z,24.9
2023-02-08T06:58:40.443Z,24.5
2023-02-08T07:04:18.867Z,24.8
2023-02-08T07:10:02.480Z,24.9
2023-02-08T07:15:39.490Z,24.4
2023-02-08T07:21:02.191Z,24.6
2023-02-08T07:26:38.110Z,25
2023-02-08T07:32:15.317Z,24.6
2023-02-08T07:37:54.763Z,24.6
2023-02-08T07:43:30.811Z,24.9
2023-02-08T07:49:07.007Z,24.7
2023-02-08T07:54:44.780Z,24.6
2023-02-08T08:00:23.494Z,24.8
2023-02-08T08:06:11.597Z,24.6
2023-02-08T08:11:49.711Z,24.7
2023-02-08T08:17:10.699Z,24.9
2023-02-08T08:22:49.527Z,24.5
2023-02-08T08:28:28.256Z,24.7
2023-02-08T08:34:07.675Z,24.9
2023-02-08T08:39:45.605Z,24.5
2023-02-08T08:45:23.885Z,24.8
2023-02-08T08:50:44.600Z,24.9
2023-02-08T08:56:21.470Z,24.5
2023-02-08T09:01:43.398Z,24.8
2023-02-08T09:07:20.355Z,24.9
2023-02-08T09:12:57.888Z,24.6
2023-02-08T09:18:37.066Z,24.9
2023-02-08T09:24:14.766Z,24.9
2023-02-08T09:29:37.027Z,24.7
2023-02-08T09:35:16.213Z,24.9
2023-02-08T09:40:53.260Z,25.1
2023-02-08T09:46:24.795Z,24.9
2023-02-08T09:52:02.667Z,25
2023-02-08T09:57:41.666Z,24.7
2023-02-08T10:03:03.550Z,24.9
2023-02-08T10:08:50.925Z,24.9
2023-02-08T10:14:26.313Z,24.7
2023-02-08T10:19:48.547Z,25
2023-02-08T10:25:25.911Z,24.8
2023-02-08T10:30:49.575Z,24.8
2023-02-08T10:36:31.014Z,25.1
2023-02-08T10:42:27.963Z,24.7
2023-02-08T10:48:27.979Z,24.9
2023-02-08T10:54:11.318Z,24.8
2023-02-08T10:59:39.707Z,24.8
2023-02-08T11:05:27.438Z,25.1
2023-02-08T11:11:11.627Z,24.7
2023-02-08T11:17:02.584Z,24.9
2023-02-08T11:22:45.858Z,24.9
2023-02-08T11:28:29.115Z,24.8
2023-02-08T11:34:13.658Z,25.1
2023-02-08T11:39:56.886Z,25.1
2023-02-08T11:45:40.105Z,25.1
2023-02-08T11:51:20.378Z,24.8
2023-02-08T11:56:42.953Z,24.8
2023-02-08T12:02:04.873Z,25
2023-02-08T12:07:12.361Z,24.8
2023-02-08T12:12:49.737Z,25
2023-02-08T12:18:45.118Z,24.9
2023-02-08T12:24:23.900Z,24.8
2023-02-08T12:30:17.813Z,25.1
2023-02-08T12:36:20.118Z,24.8
2023-02-08T12:42:07.590Z,24.9
2023-02-08T12:47:54.902Z,25
2023-02-08T12:53:23.958Z,24.7
2023-02-08T12:59:28.360Z,25.1
2023-02-08T13:04:50.798Z,24.8
2023-02-08T13:10:35.700Z,24.8
2023-02-08T13:16:38.249Z,25.1
2023-02-08T13:22:28.468Z,24.6
2023-02-08T13:28:29.430Z,24.9
2023-02-08T13:34:18.043Z,25.2
2023-02-08T13:40:10.621Z,25.3
2023-02-08T13:46:03.989Z,24.9
2023-02-08T13:51:42.417Z,24.8
2023-02-08T13:57:03.055Z,25.1
2023-02-08T14:02:40.580Z,24.7
2023-02-08T14:08:17.823Z,24.9
2023-02-08T14:13:58.355Z,25
2023-02-08T14:19:21.782Z,24.6
2023-02-08T14:24:58.228Z,24.9
2023-02-08T14:30:35.244Z,24.9
2023-02-08T14:36:14.679Z,24.4
2023-02-08T14:41:59.056Z,24.1
2023-02-08T14:47:24.064Z,23.9
2023-02-08T14:52:45.564Z,23.7
2023-02-08T14:58:06.999Z,23.6
2023-02-08T15:03:44.373Z,23.4
2023-02-08T15:09:29.136Z,23.3
2023-02-08T15:15:08.307Z,23.1
2023-02-08T15:20:48.677Z,22.9
2023-02-08T15:26:26.177Z,22.7
2023-02-08T15:32:13.987Z,22.6
2023-02-08T15:37:51.592Z,22.4
2023-02-08T15:43:28.811Z,22.2
2023-02-08T15:49:06.974Z,22
2023-02-08T15:54:43.557Z,21.8
2023-02-08T16:00:16.419Z,22.3
2023-02-08T16:05:39.493Z,22.6
2023-02-08T16:10:45.885Z,22.9
2023-02-08T16:16:42.622Z,23.4
2023-02-08T16:22:09.709Z,23.9
2023-02-08T16:27:47.254Z,24.4
2023-02-08T16:33:26.324Z,24.8
2023-02-08T16:39:03.617Z,25.3
2023-02-08T16:44:57.694Z,25.7
2023-02-08T16:50:47.596Z,25.9
2023-02-08T16:56:29.974Z,26.1
2023-02-08T17:01:52.406Z,26.4
2023-02-08T17:07:32.379Z,26.6
2023-02-08T17:13:36.898Z,26.6
2023-02-08T17:18:59.771Z,26.7
2023-02-08T17:24:38.916Z,26.9
2023-02-08T17:30:02.053Z,27.2
2023-02-08T17:35:41.085Z,27.4
2023-02-08T17:41:17.945Z,27.8
2023-02-08T17:46:39.886Z,27.9
2023-02-08T17:52:17.285Z,28.1
2023-02-08T17:57:41.969Z,28.3
2023-02-08T18:03:24.585Z,28.5
2023-02-08T18:09:02.842Z,28.6
2023-02-08T18:14:40.226Z,28.6
2023-02-08T18:20:18.946Z,28.8
2023-02-08T18:25:41.363Z,28.9
2023-02-08T18:31:19.496Z,29
2023-02-08T18:37:00.616Z,29.1
2023-02-08T18:42:38.592Z,29.1
2023-02-08T18:48:16.240Z,29.1
2023-02-08T18:54:11.637Z,28.9
2023-02-08T18:59:33.826Z,28.9
2023-02-08T19:05:12.742Z,28.8
2023-02-08T19:10:50.669Z,28.8
2023-02-08T19:16:28.646Z,28.9
2023-02-08T19:22:06.323Z,29.2
2023-02-08T19:27:28.512Z,29.3
2023-02-08T19:33:06.513Z,29.3
2023-02-08T19:38:44.136Z,29.2
2023-02-08T19:44:21.896Z,29.2
2023-02-08T19:50:19.929Z,29.1
2023-02-08T19:55:25.737Z,29.1
2023-02-08T20:01:14.196Z,29.3
2023-02-08T20:06:57.781Z,29.4
2023-02-08T20:12:47.077Z,29.4
2023-02-08T20:18:28.093Z,29.4
2023-02-08T20:24:13.271Z,29.6
2023-02-08T20:29:50.767Z,29.7
2023-02-08T20:35:34.157Z,29.9
2023-02-08T20:41:22.558Z,29.9
2023-02-08T20:46:59.796Z,30
2023-02-08T20:52:53.387Z,30.1
2023-02-08T20:58:31.087Z,30.1
2023-02-08T21:04:02.607Z,30.3
2023-02-08T21:09:39.991Z,30.1
2023-02-08T21:15:19.154Z,30.1
2023-02-08T21:20:59.812Z,30
2023-02-08T21:26:37.790Z,29.9
2023-02-08T21:32:16.422Z,29.8
2023-02-08T21:37:55.422Z,29.8
2023-02-08T21:43:33.199Z,29.6
2023-02-08T21:48:55.484Z,29.6
2023-02-08T21:54:32.423Z,28.9
2023-02-08T22:00:12.371Z,28.1
2023-02-08T22:05:34.208Z,27.5
2023-02-08T22:11:14.882Z,27.3
2023-02-08T22:16:52.255Z,27.3
2023-02-08T22:22:29.632Z,27.6
2023-02-08T22:28:06.375Z,27.3
2023-02-08T22:33:46.221Z,26.8
2023-02-08T22:39:08.504Z,26.3
2023-02-08T22:44:44.874Z,26.6
2023-02-08T22:50:22.824Z,26.8
2023-02-08T22:55:59.721Z,26.4
2023-02-08T23:01:36.834Z,26
2023-02-08T23:07:14.472Z,25.8
2023-02-08T23:12:51.625Z,26.1
2023-02-08T23:18:29.021Z,26.3
2023-02-08T23:24:08.872Z,25.8
2023-02-08T23:29:46.321Z,25.7
2023-02-08T23:35:07.619Z,26
2023-02-08T23:40:45.053Z,25.9
2023-02-08T23:46:23.141Z,25.4
2023-02-08T23:51:45.129Z,25.6
2023-02-08T23:57:23.024Z,25.8
